createdAt,value
2022-07-26T00:01:32.187Z,1.40
2022-07-26T00:03:59.993Z,0.70
2022-07-26T00:06:27.396Z,0.90
2022-07-26T00:08:54.607Z,0.73
2022-07-26T00:11:22.294Z,0.70
2022-07-26T00:13:49.390Z,0.80
2022-07-26T00:16:16.731Z,0.63
2022-07-26T00:18:44.258Z,0.70
2022-07-26T00:21:11.792Z,0.60
2022-07-26T00:23:39.320Z,0.50
2022-07-26T00:26:06.380Z,0.80
2022-07-26T00:28:33.386Z,0.70
2022-07-26T00:31:01.155Z,0.80
2022-07-26T00:33:28.201Z,1.20
2022-07-26T00:35:55.294Z,0.80
2022-07-26T00:38:22.213Z,0.97
2022-07-26T00:40:49.165Z,1.10
2022-07-26T00:43:16.276Z,1.90
2022-07-26T00:45:43.390Z,1.57
2022-07-26T00:48:10.409Z,1.03
2022-07-26T00:50:37.529Z,0.90
2022-07-26T00:53:04.530Z,0.97
2022-07-26T00:55:34.269Z,0.70
2022-07-26T00:58:02.139Z,0.93
2022-07-26T01:00:29.373Z,1.00
2022-07-26T01:02:57.154Z,0.70
2022-07-26T01:05:24.658Z,1.20
2022-07-26T01:07:53.032Z,0.87
2022-07-26T01:10:20.468Z,0.80
2022-07-26T01:12:47.485Z,0.90
2022-07-26T01:15:15.851Z,0.90
2022-07-26T01:17:43.357Z,1.50
2022-07-26T01:20:12.346Z,1.63
2022-07-26T01:22:39.340Z,0.97
2022-07-26T01:25:07.265Z,1.23
2022-07-26T01:27:39.101Z,0.97
2022-07-26T01:30:09.060Z,1.00
2022-07-26T01:32:36.258Z,1.17
2022-07-26T01:35:04.780Z,1.47
2022-07-26T01:37:31.844Z,1.10
2022-07-26T01:39:58.723Z,1.30
2022-07-26T01:42:25.557Z,1.47
2022-07-26T01:44:52.519Z,1.77
2022-07-26T01:47:19.438Z,0.90
2022-07-26T01:49:46.338Z,0.93
2022-07-26T01:52:13.296Z,1.00
2022-07-26T01:54:40.199Z,1.20
2022-07-26T01:57:07.180Z,1.20
2022-07-26T01:59:34.047Z,1.00
2022-07-26T02:02:01.121Z,1.50
2022-07-26T02:04:46.582Z,1.07
2022-07-26T02:07:13.619Z,1.37
2022-07-26T02:09:40.848Z,1.50
2022-07-26T02:12:08.379Z,1.77
2022-07-26T02:14:35.321Z,1.10
2022-07-26T02:17:02.807Z,2.37
2022-07-26T02:19:30.601Z,1.37
2022-07-26T02:21:58.432Z,0.70
2022-07-26T02:24:28.912Z,1.23
2022-07-26T02:26:57.254Z,1.70
2022-07-26T02:29:24.398Z,1.13
2022-07-26T02:31:52.175Z,0.80
2022-07-26T02:34:19.713Z,1.07
2022-07-26T02:36:46.843Z,0.90
2022-07-26T02:39:14.432Z,0.70
2022-07-26T02:41:41.387Z,1.40
2022-07-26T02:44:09.066Z,0.90
2022-07-26T02:46:37.471Z,2.07
2022-07-26T02:49:04.599Z,1.17
2022-07-26T02:51:31.508Z,1.10
2022-07-26T02:53:58.392Z,1.10
2022-07-26T02:56:25.413Z,0.80
2022-07-26T02:58:52.430Z,0.80
2022-07-26T03:01:19.553Z,1.20
2022-07-26T03:03:50.558Z,0.80
2022-07-26T03:06:19.143Z,0.80
2022-07-26T03:08:46.653Z,1.30
2022-07-26T03:11:13.761Z,0.97
2022-07-26T03:13:40.954Z,1.07
2022-07-26T03:16:08.485Z,0.80
2022-07-26T03:18:35.867Z,0.70
2022-07-26T03:21:03.021Z,0.80
2022-07-26T03:23:33.383Z,0.80
2022-07-26T03:26:01.804Z,0.70
2022-07-26T03:28:33.343Z,0.90
2022-07-26T03:31:00.786Z,0.73
2022-07-26T03:33:28.269Z,0.70
2022-07-26T03:35:55.222Z,1.00
2022-07-26T03:38:22.315Z,1.60
2022-07-26T03:40:49.260Z,1.30
2022-07-26T03:43:18.946Z,1.20
2022-07-26T03:45:48.318Z,1.17
2022-07-26T03:48:15.395Z,1.00
2022-07-26T03:50:43.039Z,1.63
2022-07-26T03:53:10.036Z,1.90
2022-07-26T03:55:55.338Z,1.23
2022-07-26T03:58:22.283Z,2.63
2022-07-26T04:00:49.359Z,1.53
2022-07-26T04:03:16.306Z,1.63
2022-07-26T04:05:48.975Z,1.37
2022-07-26T04:08:16.848Z,1.10
2022-07-26T04:10:51.118Z,1.23
2022-07-26T04:13:19.807Z,0.80
2022-07-26T04:15:46.778Z,0.70
2022-07-26T04:18:14.326Z,0.80
2022-07-26T04:20:41.861Z,1.73
2022-07-26T04:23:11.918Z,1.30
2022-07-26T04:25:41.312Z,1.20
2022-07-26T04:28:09.342Z,0.90
2022-07-26T04:30:36.432Z,2.17
2022-07-26T04:33:04.220Z,2.03
2022-07-26T04:35:31.623Z,1.13
2022-07-26T04:37:58.775Z,2.80
2022-07-26T04:40:28.430Z,2.73
2022-07-26T04:42:57.028Z,3.13
2022-07-26T04:45:23.963Z,1.87
2022-07-26T04:47:51.324Z,1.50
2022-07-26T04:50:19.692Z,2.53
2022-07-26T04:52:47.191Z,2.57
2022-07-26T04:55:14.790Z,2.07
2022-07-26T04:57:42.052Z,2.60
2022-07-26T05:00:26.482Z,2.97
2022-07-26T05:02:56.601Z,4.57
2022-07-26T05:05:25.274Z,3.63
2022-07-26T05:07:54.660Z,2.90
2022-07-26T05:10:27.833Z,4.93
2022-07-26T05:12:54.774Z,3.67
2022-07-26T05:15:21.679Z,6.87
2022-07-26T05:17:49.720Z,4.03
2022-07-26T05:20:17.363Z,4.47
2022-07-26T05:22:45.191Z,3.80
2022-07-26T05:25:12.044Z,2.63
2022-07-26T05:27:40.594Z,3.23
2022-07-26T05:30:09.714Z,8.40
2022-07-26T05:32:37.136Z,3.13
2022-07-26T05:35:04.664Z,2.50
2022-07-26T05:37:31.627Z,3.87
2022-07-26T05:39:58.699Z,2.80
2022-07-26T05:42:25.889Z,1.77
2022-07-26T05:44:52.998Z,1.60
2022-07-26T05:47:23.137Z,3.30
2022-07-26T05:49:50.080Z,2.77
2022-07-26T05:52:17.052Z,2.60
2022-07-26T05:54:43.973Z,2.80
2022-07-26T05:57:10.931Z,2.07
2022-07-26T05:59:37.946Z,3.50
2022-07-26T06:02:05.369Z,1.80
2022-07-26T06:04:32.424Z,2.90
2022-07-26T06:06:59.418Z,2.33
2022-07-26T06:09:27.004Z,3.00
2022-07-26T06:11:54.128Z,2.23
2022-07-26T06:14:21.144Z,1.67
2022-07-26T06:16:48.659Z,2.00
2022-07-26T06:19:15.846Z,3.13
2022-07-26T06:21:42.964Z,2.30
2022-07-26T06:24:10.629Z,2.70
2022-07-26T06:26:38.798Z,1.97
2022-07-26T06:29:05.923Z,1.33
2022-07-26T06:31:33.023Z,1.23
2022-07-26T06:34:01.960Z,2.37
2022-07-26T06:36:31.067Z,2.53
2022-07-26T06:38:59.177Z,1.40
2022-07-26T06:41:26.663Z,1.70
2022-07-26T06:43:53.781Z,2.00
2022-07-26T06:46:21.213Z,1.43
2022-07-26T06:48:52.686Z,2.27
2022-07-26T06:51:20.887Z,1.97
2022-07-26T06:53:48.177Z,2.20
2022-07-26T06:56:17.653Z,2.50
2022-07-26T06:58:45.078Z,2.00
2022-07-26T07:01:12.431Z,1.60
2022-07-26T07:03:39.564Z,1.53
2022-07-26T07:06:06.764Z,1.60
2022-07-26T07:08:33.782Z,1.90
2022-07-26T07:11:02.137Z,1.20
2022-07-26T07:13:30.740Z,0.80
2022-07-26T07:15:57.699Z,0.93
2022-07-26T07:18:24.664Z,1.03
2022-07-26T07:20:51.651Z,1.00
2022-07-26T07:23:22.200Z,0.90
2022-07-26T07:25:49.970Z,0.97
2022-07-26T07:28:18.282Z,0.90
2022-07-26T07:30:47.511Z,1.60
2022-07-26T07:33:22.346Z,1.20
2022-07-26T07:35:51.213Z,1.30
2022-07-26T07:38:18.457Z,0.97
2022-07-26T07:40:46.197Z,0.80
2022-07-26T07:43:13.113Z,0.90
2022-07-26T07:45:40.193Z,1.00
2022-07-26T07:48:07.138Z,1.20
2022-07-26T07:50:34.375Z,0.77
2022-07-26T07:53:02.310Z,0.83
2022-07-26T07:55:41.099Z,1.30
2022-07-26T07:58:11.252Z,2.90
2022-07-26T08:00:38.873Z,2.10
2022-07-26T08:03:05.933Z,2.60
2022-07-26T08:05:33.014Z,2.03
2022-07-26T08:08:00.108Z,3.40
2022-07-26T08:10:29.204Z,3.50
2022-07-26T08:12:56.128Z,2.27
2022-07-26T08:15:23.469Z,5.70
2022-07-26T08:17:54.710Z,1.50
2022-07-26T08:20:23.473Z,1.90
2022-07-26T08:22:50.882Z,3.00
2022-07-26T08:25:18.057Z,2.80
2022-07-26T08:27:51.113Z,1.73
2022-07-26T08:30:30.291Z,1.43
2022-07-26T08:32:57.265Z,2.20
2022-07-26T08:35:24.307Z,1.83
2022-07-26T08:37:51.327Z,1.50
2022-07-26T08:40:18.619Z,2.43
2022-07-26T08:42:53.507Z,1.90
2022-07-26T08:45:25.271Z,1.93
2022-07-26T08:48:16.182Z,1.70
2022-07-26T08:50:41.003Z,0.80
2022-07-26T08:53:09.455Z,1.17
2022-07-26T08:56:04.240Z,1.20
2022-07-26T08:58:24.199Z,1.40
2022-07-26T09:01:09.054Z,1.83
2022-07-26T09:03:39.069Z,1.93
2022-07-26T09:06:12.489Z,1.00
2022-07-26T09:08:39.488Z,1.07
2022-07-26T09:11:24.757Z,0.90
2022-07-26T09:13:51.804Z,1.23
2022-07-26T09:16:21.942Z,0.70
2022-07-26T09:18:48.956Z,1.20
2022-07-26T09:21:36.035Z,1.43
2022-07-26T09:24:03.140Z,1.07
2022-07-26T09:26:30.272Z,0.80
2022-07-26T09:29:12.346Z,0.97
2022-07-26T09:31:39.928Z,0.70
2022-07-26T09:34:08.310Z,0.80
2022-07-26T09:36:54.337Z,0.80
2022-07-26T09:39:22.772Z,0.90
2022-07-26T09:44:57.630Z,0.60
2022-07-26T09:47:39.200Z,0.80
2022-07-26T09:50:28.644Z,0.50
2022-07-26T09:53:12.890Z,0.67
2022-07-26T09:55:45.938Z,1.00
2022-07-26T09:58:14.501Z,0.70
2022-07-26T10:00:42.212Z,1.27
2022-07-26T10:03:09.625Z,1.03
2022-07-26T10:05:37.795Z,0.80
2022-07-26T10:08:06.321Z,0.67
2022-07-26T10:11:01.968Z,0.90
2022-07-26T10:13:30.393Z,0.80
2022-07-26T10:15:57.642Z,0.80
2022-07-26T10:18:38.277Z,0.80
2022-07-26T10:21:26.365Z,1.50
2022-07-26T10:24:00.541Z,1.20
2022-07-26T10:26:36.354Z,1.00
2022-07-26T10:29:21.831Z,1.00
2022-07-26T10:32:16.013Z,1.00
2022-07-26T10:34:44.222Z,0.97
2022-07-26T10:37:20.793Z,0.97
2022-07-26T10:39:51.308Z,1.00
2022-07-26T10:42:18.280Z,1.27
2022-07-26T10:44:45.373Z,1.60
2022-07-26T10:47:18.525Z,1.90
2022-07-26T10:49:59.620Z,1.57
2022-07-26T10:52:29.118Z,1.50
2022-07-26T10:55:04.743Z,2.00
2022-07-26T10:57:37.370Z,1.30
2022-07-26T11:00:14.899Z,1.17
2022-07-26T11:02:43.892Z,1.40
2022-07-26T11:05:15.043Z,1.30
2022-07-26T11:07:48.009Z,1.00
2022-07-26T11:10:15.033Z,0.80
2022-07-26T11:12:41.981Z,1.47
2022-07-26T11:15:19.606Z,1.67
2022-07-26T11:17:46.453Z,1.50
2022-07-26T11:20:29.250Z,1.33
2022-07-26T11:22:56.897Z,1.67
2022-07-26T11:25:23.727Z,0.97
2022-07-26T11:28:02.165Z,1.50
2022-07-26T11:30:32.047Z,0.97
2022-07-26T11:32:59.274Z,1.00
2022-07-26T11:35:29.846Z,0.90
2022-07-26T11:38:07.839Z,1.47
2022-07-26T11:40:46.018Z,1.03
2022-07-26T11:43:13.340Z,0.90
2022-07-26T11:45:40.690Z,1.00
2022-07-26T11:48:07.950Z,2.20
2022-07-26T11:50:34.912Z,0.90
2022-07-26T11:53:01.879Z,1.10
2022-07-26T11:55:30.307Z,0.80
2022-07-26T11:58:04.943Z,1.20
2022-07-26T12:00:32.083Z,1.67
2022-07-26T12:02:59.226Z,1.90
2022-07-26T12:05:27.939Z,2.80
2022-07-26T12:08:04.292Z,2.17
2022-07-26T12:10:31.737Z,2.40
2022-07-26T12:13:13.660Z,1.10
2022-07-26T12:15:48.446Z,1.40
2022-07-26T12:18:29.864Z,1.47
2022-07-26T12:21:07.859Z,1.37
2022-07-26T12:23:41.821Z,1.40
2022-07-26T12:26:23.245Z,1.90
2022-07-26T12:28:50.290Z,1.67
2022-07-26T12:31:30.357Z,1.77
2022-07-26T12:33:58.109Z,1.17
2022-07-26T12:36:27.424Z,1.20
2022-07-26T12:38:56.813Z,1.57
2022-07-26T12:41:37.049Z,1.27
2022-07-26T12:44:05.830Z,1.87
2022-07-26T12:46:34.174Z,1.40
2022-07-26T12:49:01.563Z,1.00
2022-07-26T12:51:28.721Z,1.00
2022-07-26T12:53:55.684Z,1.77
2022-07-26T12:56:22.680Z,1.87
2022-07-26T12:58:49.679Z,1.47
2022-07-26T13:01:16.701Z,1.60
2022-07-26T13:03:44.355Z,1.90
2022-07-26T13:06:11.468Z,1.30
2022-07-26T13:08:38.515Z,1.50
2022-07-26T13:11:05.505Z,1.40
2022-07-26T13:13:32.438Z,1.10
2022-07-26T13:15:59.321Z,1.37
2022-07-26T13:18:26.428Z,1.67
2022-07-26T13:20:53.389Z,1.00
2022-07-26T13:23:22.092Z,1.00
2022-07-26T13:25:52.371Z,1.37
2022-07-26T13:28:19.787Z,1.57
2022-07-26T13:30:46.827Z,0.97
2022-07-26T13:33:13.764Z,1.10
2022-07-26T13:35:42.424Z,0.90
2022-07-26T13:38:09.550Z,0.90
2022-07-26T13:40:37.089Z,1.00
2022-07-26T13:43:04.807Z,0.93
2022-07-26T13:45:31.738Z,1.40
2022-07-26T13:47:59.783Z,0.90
2022-07-26T13:50:28.212Z,1.00
2022-07-26T13:52:56.637Z,0.70
2022-07-26T13:55:24.356Z,1.00
2022-07-26T13:57:56.635Z,0.90
2022-07-26T14:00:29.294Z,1.00
2022-07-26T14:02:58.204Z,1.10
2022-07-26T14:05:25.962Z,1.00
2022-07-26T14:07:53.149Z,0.80
2022-07-26T14:10:21.541Z,0.90
2022-07-26T14:12:48.635Z,1.00
2022-07-26T14:15:21.624Z,1.60
2022-07-26T14:17:50.129Z,1.23
2022-07-26T14:20:17.464Z,1.10
2022-07-26T14:22:44.945Z,1.77
2022-07-26T14:25:12.223Z,1.80
2022-07-26T14:27:39.161Z,1.10
2022-07-26T14:30:06.653Z,1.60
2022-07-26T14:32:33.721Z,1.30
2022-07-26T14:35:00.726Z,1.83
2022-07-26T14:37:43.204Z,1.33
2022-07-26T14:40:13.552Z,1.70
2022-07-26T14:42:40.603Z,1.50
2022-07-26T14:45:09.409Z,1.57
2022-07-26T14:47:36.842Z,1.30
2022-07-26T14:50:07.096Z,1.07
2022-07-26T14:52:41.894Z,1.20
2022-07-26T14:55:10.138Z,1.37
2022-07-26T14:57:39.063Z,1.40
2022-07-26T15:00:13.093Z,1.13
2022-07-26T15:02:44.979Z,1.00
2022-07-26T15:05:13.538Z,1.20
2022-07-26T15:07:41.639Z,0.93
2022-07-26T15:10:10.899Z,0.90
2022-07-26T15:12:38.235Z,1.30
2022-07-26T15:15:07.504Z,1.20
2022-07-26T15:17:34.954Z,1.00
2022-07-26T15:20:02.355Z,0.70
2022-07-26T15:22:29.412Z,0.83
2022-07-26T15:24:56.332Z,1.00
2022-07-26T15:27:23.289Z,0.60
2022-07-26T15:29:50.912Z,0.90
2022-07-26T15:32:19.697Z,1.30
2022-07-26T15:34:46.707Z,1.00
2022-07-26T15:37:13.765Z,1.40
2022-07-26T15:39:40.685Z,1.67
2022-07-26T15:42:09.266Z,1.23
2022-07-26T15:44:38.754Z,1.30
2022-07-26T15:47:05.869Z,1.30
2022-07-26T15:49:34.148Z,1.60
2022-07-26T15:52:09.550Z,1.10
2022-07-26T15:54:36.632Z,1.20
2022-07-26T15:57:03.652Z,0.97
2022-07-26T15:59:30.577Z,1.10
2022-07-26T16:01:58.213Z,1.30
2022-07-26T16:04:25.203Z,1.10
2022-07-26T16:06:52.295Z,1.00
2022-07-26T16:09:19.849Z,1.27
2022-07-26T16:11:48.520Z,0.83
2022-07-26T16:14:16.744Z,1.20
2022-07-26T16:16:45.002Z,1.20
2022-07-26T16:19:12.535Z,1.10
2022-07-26T16:21:40.443Z,1.20
2022-07-26T16:24:08.147Z,1.40
2022-07-26T16:26:35.993Z,2.20
2022-07-26T16:29:04.293Z,2.10
2022-07-26T16:31:31.393Z,1.27
2022-07-26T16:33:58.444Z,2.00
2022-07-26T16:36:25.431Z,0.90
2022-07-26T16:38:57.991Z,2.30
2022-07-26T16:41:24.944Z,1.80
2022-07-26T16:43:51.898Z,1.90
2022-07-26T16:46:21.417Z,1.30
2022-07-26T16:48:48.764Z,0.90
2022-07-26T16:51:16.701Z,1.17
2022-07-26T16:53:45.254Z,1.30
2022-07-26T16:56:12.216Z,1.70
2022-07-26T16:58:39.098Z,1.60
2022-07-26T17:01:06.099Z,1.10
2022-07-26T17:03:33.056Z,1.10
2022-07-26T17:06:06.052Z,2.30
2022-07-26T17:08:34.351Z,1.50
2022-07-26T17:11:01.446Z,1.23
2022-07-26T17:13:28.361Z,1.00
2022-07-26T17:15:55.382Z,0.80
2022-07-26T17:18:22.485Z,1.90
2022-07-26T17:20:49.476Z,1.30
2022-07-26T17:23:18.454Z,1.83
2022-07-26T17:25:45.603Z,1.20
2022-07-26T17:28:12.594Z,1.27
2022-07-26T17:30:39.755Z,1.10
2022-07-26T17:33:06.721Z,0.80
2022-07-26T17:35:33.754Z,0.80
2022-07-26T17:38:00.659Z,1.27
2022-07-26T17:40:29.317Z,1.03
2022-07-26T17:42:56.609Z,1.20
2022-07-26T17:45:23.525Z,1.70
2022-07-26T17:47:50.477Z,1.13
2022-07-26T17:53:04.495Z,0.87
2022-07-26T17:55:31.480Z,1.27
2022-07-26T17:57:58.426Z,1.40
2022-07-26T18:00:28.685Z,1.50
2022-07-26T18:02:56.858Z,3.00
2022-07-26T18:05:28.626Z,1.37
2022-07-26T18:08:00.365Z,1.00
2022-07-26T18:10:28.121Z,1.33
2022-07-26T18:12:55.214Z,0.90
2022-07-26T18:15:22.378Z,0.70
2022-07-26T18:17:49.321Z,1.13
2022-07-26T18:20:16.410Z,1.10
2022-07-26T18:22:45.852Z,1.00
2022-07-26T18:25:17.259Z,0.90
2022-07-26T18:27:44.334Z,0.90
2022-07-26T18:30:11.865Z,0.90
2022-07-26T18:32:38.950Z,1.37
2022-07-26T18:35:06.457Z,0.90
2022-07-26T18:37:33.566Z,0.80
2022-07-26T18:40:00.959Z,0.80
2022-07-26T18:42:27.903Z,0.80
2022-07-26T18:44:54.780Z,0.80
2022-07-26T18:47:22.303Z,0.77
2022-07-26T18:49:49.305Z,1.00
2022-07-26T18:52:17.319Z,0.77
2022-07-26T18:54:56.209Z,0.90
2022-07-26T18:57:23.148Z,0.70
2022-07-26T18:59:50.178Z,1.03
2022-07-26T19:02:17.275Z,0.90
2022-07-26T19:04:44.260Z,0.90
2022-07-26T19:07:11.154Z,1.00
2022-07-26T19:09:38.052Z,0.80
2022-07-26T19:12:05.085Z,0.80
2022-07-26T19:14:32.046Z,1.03
2022-07-26T19:16:58.947Z,0.93
2022-07-26T19:19:25.976Z,0.60
2022-07-26T19:21:53.037Z,0.80
2022-07-26T19:24:20.089Z,1.00
2022-07-26T19:26:47.060Z,0.80
2022-07-26T19:29:14.477Z,0.80
2022-07-26T19:31:45.600Z,0.70
2022-07-26T19:34:15.315Z,0.60
2022-07-26T19:36:42.212Z,0.80
2022-07-26T19:39:09.468Z,0.77
2022-07-26T19:41:36.741Z,0.90
2022-07-26T19:44:03.928Z,0.80
2022-07-26T19:46:30.936Z,0.73
2022-07-26T19:48:58.029Z,0.80
2022-07-26T19:51:25.015Z,0.80
2022-07-26T19:53:51.993Z,0.60
2022-07-26T19:56:19.009Z,0.80
2022-07-26T19:58:46.333Z,0.70
2022-07-26T20:01:13.376Z,0.70
2022-07-26T20:03:40.451Z,0.70
2022-07-26T20:06:07.503Z,0.80
2022-07-26T20:08:34.468Z,1.03
2022-07-26T20:11:01.509Z,0.87
2022-07-26T20:13:28.607Z,0.90
2022-07-26T20:15:55.481Z,0.73
2022-07-26T20:18:24.788Z,0.70
2022-07-26T20:20:56.330Z,0.80
2022-07-26T20:23:24.147Z,0.60
2022-07-26T20:25:51.534Z,0.60
2022-07-26T20:28:18.479Z,0.60
2022-07-26T20:30:48.245Z,0.70
2022-07-26T20:33:15.476Z,0.60
2022-07-26T20:35:42.393Z,1.00
2022-07-26T20:38:09.300Z,1.00
2022-07-26T20:40:36.437Z,1.00
2022-07-26T20:43:04.935Z,0.83
2022-07-26T20:45:31.916Z,0.70
2022-07-26T20:47:59.382Z,1.10
2022-07-26T20:50:26.439Z,0.80
2022-07-26T20:52:53.385Z,0.80
2022-07-26T20:55:20.332Z,1.00
2022-07-26T20:57:47.741Z,0.70
2022-07-26T21:00:15.372Z,0.70
2022-07-26T21:02:42.780Z,0.87
2022-07-26T21:05:10.262Z,0.70
2022-07-26T21:07:55.647Z,0.70
2022-07-26T21:10:25.319Z,1.00
2022-07-26T21:12:52.985Z,0.70
2022-07-26T21:15:20.055Z,0.80
2022-07-26T21:17:46.974Z,0.60
2022-07-26T21:20:13.864Z,0.67
2022-07-26T21:22:40.867Z,0.90
2022-07-26T21:25:08.230Z,0.70
2022-07-26T21:27:35.244Z,0.70
2022-07-26T21:30:02.794Z,0.97
2022-07-26T21:32:31.759Z,0.80
2022-07-26T21:34:59.305Z,0.70
2022-07-26T21:37:26.779Z,0.70
2022-07-26T21:39:53.752Z,0.70
2022-07-26T21:42:20.659Z,0.90
2022-07-26T21:44:47.576Z,0.80
2022-07-26T21:47:14.601Z,0.70
2022-07-26T21:49:41.662Z,0.80
2022-07-26T21:52:08.582Z,0.97
2022-07-26T21:54:35.580Z,0.80
2022-07-26T21:57:02.492Z,1.00
2022-07-26T21:59:29.621Z,1.17
2022-07-26T22:01:56.584Z,1.17
2022-07-26T22:04:24.326Z,1.40
2022-07-26T22:06:51.307Z,1.40
2022-07-26T22:09:18.242Z,1.53
2022-07-26T22:11:45.198Z,0.90
2022-07-26T22:14:12.224Z,0.80
2022-07-26T22:16:39.147Z,0.80
2022-07-26T22:19:06.536Z,0.80
2022-07-26T22:21:33.431Z,0.90
2022-07-26T22:24:00.444Z,0.90
2022-07-26T22:26:31.131Z,0.70
2022-07-26T22:28:58.843Z,0.77
2022-07-26T22:31:26.488Z,0.60
2022-07-26T22:33:53.550Z,0.70
2022-07-26T22:36:20.522Z,0.70
2022-07-26T22:38:47.598Z,0.67
2022-07-26T22:41:14.685Z,0.77
2022-07-26T22:43:41.914Z,0.80
2022-07-26T22:46:09.065Z,0.80
2022-07-26T22:48:38.625Z,0.73
2022-07-26T22:51:06.511Z,0.80
2022-07-26T22:53:33.423Z,0.80
2022-07-26T22:56:00.348Z,0.80
2022-07-26T22:58:27.273Z,0.80
2022-07-26T23:00:54.619Z,0.83
2022-07-26T23:03:21.971Z,0.80
2022-07-26T23:05:50.534Z,0.63
2022-07-26T23:11:06.537Z,0.60
2022-07-26T23:13:33.647Z,0.60
2022-07-26T23:16:01.623Z,0.60
2022-07-26T23:18:30.933Z,0.90
2022-07-26T23:20:58.014Z,0.60
2022-07-26T23:23:29.054Z,0.60
2022-07-26T23:25:57.791Z,0.50
2022-07-26T23:28:36.872Z,0.70
2022-07-26T23:31:10.857Z,0.90
2022-07-26T23:33:52.092Z,0.60
2022-07-26T23:36:26.770Z,0.60
2022-07-26T23:38:55.870Z,0.70
2022-07-26T23:41:23.024Z,0.70
2022-07-26T23:43:50.307Z,0.67
2022-07-26T23:46:17.376Z,0.60
2022-07-26T23:48:44.585Z,0.60
2022-07-26T23:51:11.784Z,0.70
2022-07-26T23:53:38.778Z,0.63
2022-07-26T23:56:05.794Z,0.67
2022-07-26T23:58:32.736Z,0.70
